createdAt,value
2019-04-22T00:00:06.630Z,13.12
2019-04-22T00:01:08.299Z,13.08
2019-04-22T00:02:09.551Z,13.20
2019-04-22T00:03:10.307Z,13.12
2019-04-22T00:04:10.839Z,13.16
2019-04-22T00:05:13.106Z,13.18
2019-04-22T00:06:26.814Z,13.08
2019-04-22T00:07:28.530Z,13.09
2019-04-22T00:08:31.274Z,13.11
2019-04-22T00:09:31.063Z,12.98
2019-04-22T00:10:33.166Z,12.95
2019-04-22T00:11:29.200Z,12.93
2019-04-22T00:12:34.539Z,12.87
2019-04-22T00:13:32.418Z,12.82
2019-04-22T00:14:26.780Z,12.78
2019-04-22T00:15:27.238Z,12.82
2019-04-22T00:16:34.320Z,12.75
2019-04-22T00:17:40.159Z,12.65
2019-04-22T00:18:50.532Z,12.68
2019-04-22T00:19:40.010Z,12.64
2019-04-22T00:20:30.469Z,12.67
2019-04-22T00:21:37.305Z,12.70
2019-04-22T00:22:33.342Z,12.68
2019-04-22T00:23:36.527Z,12.68
2019-04-22T00:24:32.107Z,12.64
2019-04-22T00:25:35.035Z,12.64
2019-04-22T00:26:40.366Z,12.55
2019-04-22T00:27:34.316Z,12.49
2019-04-22T00:28:32.362Z,12.50
2019-04-22T00:30:25.535Z,12.53
2019-04-22T00:31:26.833Z,12.54
2019-04-22T00:32:32.297Z,12.49
2019-04-22T00:34:29.883Z,12.55
2019-04-22T00:35:29.348Z,12.47
2019-04-22T00:36:28.599Z,12.53
2019-04-22T00:37:28.608Z,12.53
2019-04-22T00:39:44.788Z,12.50
2019-04-22T00:40:39.630Z,12.53
2019-04-22T00:41:43.944Z,12.42
2019-04-22T00:42:44.126Z,12.45
2019-04-22T00:43:42.185Z,12.45
2019-04-22T00:44:41.563Z,12.36
2019-04-22T00:45:49.187Z,12.40
2019-04-22T00:46:38.020Z,12.29
2019-04-22T00:47:37.935Z,12.28
2019-04-22T00:48:48.635Z,12.28
2019-04-22T00:51:44.752Z,12.13
2019-04-22T00:52:41.962Z,12.12
2019-04-22T00:53:39.170Z,12.22
2019-04-22T00:54:48.977Z,12.21
2019-04-22T00:55:43.036Z,12.28
2019-04-22T00:56:37.268Z,12.22
2019-04-22T00:57:42.119Z,12.18
2019-04-22T00:58:40.777Z,12.20
2019-04-22T00:59:40.307Z,12.27
2019-04-22T01:00:39.272Z,12.21
2019-04-22T01:01:37.208Z,12.18
2019-04-22T01:02:46.169Z,12.21
2019-04-22T01:03:46.243Z,12.28
2019-04-22T01:04:39.350Z,12.24
2019-04-22T01:05:43.744Z,12.18
2019-04-22T01:06:42.295Z,12.27
2019-04-22T01:07:35.803Z,12.15
2019-04-22T01:08:51.424Z,12.10
2019-04-22T01:09:36.552Z,12.06
2019-04-22T01:10:44.059Z,12.10
2019-04-22T01:11:37.546Z,12.02
2019-04-22T01:12:39.597Z,12.09
2019-04-22T01:13:39.361Z,12.09
2019-04-22T01:14:41.674Z,12.06
2019-04-22T01:15:40.163Z,11.95
2019-04-22T01:16:43.020Z,12.00
2019-04-22T01:17:43.064Z,11.94
2019-04-22T01:18:37.980Z,11.94
2019-04-22T01:19:49.595Z,11.91
2019-04-22T01:21:07.207Z,11.87
2019-04-22T01:21:42.116Z,11.88
2019-04-22T01:22:33.062Z,11.95
2019-04-22T01:23:34.612Z,11.95
2019-04-22T01:24:32.733Z,11.84
2019-04-22T01:25:32.416Z,11.78
2019-04-22T01:26:33.128Z,11.75
2019-04-22T01:27:30.897Z,11.73
2019-04-22T01:28:27.281Z,11.70
2019-04-22T01:29:28.030Z,11.66
2019-04-22T01:30:24.151Z,11.68
2019-04-22T01:31:19.603Z,11.57
2019-04-22T01:32:22.705Z,11.62
2019-04-22T01:33:25.159Z,11.55
2019-04-22T01:34:31.952Z,11.51
2019-04-22T01:35:31.032Z,11.52
2019-04-22T01:36:38.451Z,11.57
2019-04-22T01:38:38.998Z,11.51
2019-04-22T01:39:43.677Z,11.52
2019-04-22T01:40:49.527Z,11.47
2019-04-22T01:41:48.376Z,11.54
2019-04-22T01:42:39.709Z,11.50
2019-04-22T01:43:54.364Z,11.51
2019-04-22T01:44:40.576Z,11.48
2019-04-22T01:45:39.524Z,11.45
2019-04-22T01:46:44.782Z,11.41
2019-04-22T01:48:00.627Z,11.36
2019-04-22T01:48:39.383Z,11.35
2019-04-22T01:49:41.761Z,11.36
2019-04-22T01:50:36.856Z,11.33
2019-04-22T01:51:54.631Z,11.40
2019-04-22T01:52:38.011Z,11.30
2019-04-22T01:53:43.512Z,11.27
2019-04-22T01:54:41.842Z,11.33
2019-04-22T01:56:40.978Z,11.29
2019-04-22T01:57:37.686Z,11.29
2019-04-22T01:58:33.586Z,11.29
2019-04-22T01:59:31.766Z,11.26
2019-04-22T02:00:39.597Z,11.22
2019-04-22T02:01:46.482Z,11.25
2019-04-22T02:02:41.746Z,11.15
2019-04-22T02:03:43.079Z,11.15
2019-04-22T02:05:35.795Z,11.07
2019-04-22T02:06:43.616Z,11.08
2019-04-22T02:07:42.104Z,11.07
2019-04-22T02:08:44.904Z,11.07
2019-04-22T02:10:46.175Z,11.05
2019-04-22T02:11:51.709Z,10.99
2019-04-22T02:12:38.842Z,10.97
2019-04-22T02:13:43.098Z,11.05
2019-04-22T02:14:44.294Z,10.96
2019-04-22T02:15:43.751Z,11.02
2019-04-22T02:16:48.186Z,11.00
2019-04-22T02:20:40.182Z,11.00
2019-04-22T02:21:38.697Z,10.96
2019-04-22T02:23:04.216Z,10.94
2019-04-22T02:23:47.262Z,10.92
2019-04-22T02:25:44.299Z,10.89
2019-04-22T02:26:40.249Z,10.87
2019-04-22T02:27:48.123Z,10.87
2019-04-22T02:28:39.872Z,10.87
2019-04-22T02:29:43.515Z,10.81
2019-04-22T02:30:56.500Z,10.76
2019-04-22T02:31:44.477Z,10.75
2019-04-22T02:33:08.174Z,10.69
2019-04-22T02:34:50.354Z,10.69
2019-04-22T02:35:59.917Z,10.61
2019-04-22T02:37:35.925Z,10.63
2019-04-22T02:39:45.297Z,10.68
2019-04-22T02:40:57.789Z,10.60
2019-04-22T02:41:44.431Z,10.57
2019-04-22T02:42:45.830Z,10.63
2019-04-22T02:44:42.976Z,10.59
2019-04-22T02:45:52.561Z,10.49
2019-04-22T02:46:53.282Z,10.48
2019-04-22T02:47:45.451Z,10.46
2019-04-22T02:50:45.366Z,10.49
2019-04-22T02:51:52.317Z,10.41
2019-04-22T02:54:15.301Z,10.35
2019-04-22T02:54:52.606Z,10.37
2019-04-22T02:55:49.615Z,10.41
2019-04-22T02:56:36.008Z,10.41
2019-04-22T02:57:39.991Z,10.30
2019-04-22T02:58:56.558Z,10.38
2019-04-22T02:59:54.469Z,10.40
2019-04-22T03:00:46.679Z,10.38
2019-04-22T03:01:41.333Z,10.33
2019-04-22T03:02:50.560Z,10.41
2019-04-22T03:05:05.417Z,10.37
2019-04-22T03:06:42.145Z,10.25
2019-04-22T03:07:53.764Z,10.33
2019-04-22T03:08:45.642Z,10.26
2019-04-22T03:09:38.478Z,10.26
2019-04-22T03:11:52.986Z,10.10
2019-04-22T03:14:43.788Z,10.07
2019-04-22T03:15:56.871Z,10.02
2019-04-22T03:17:43.725Z,9.86
2019-04-22T03:18:55.002Z,9.91
2019-04-22T03:20:50.063Z,9.87
2019-04-22T03:23:11.489Z,9.82
2019-04-22T03:24:54.230Z,9.72
2019-04-22T03:27:40.108Z,9.80
2019-04-22T03:28:51.117Z,9.74
2019-04-22T03:30:11.298Z,9.77
2019-04-22T03:32:14.886Z,9.76
2019-04-22T03:34:09.725Z,9.66
2019-04-22T03:35:19.086Z,9.64
2019-04-22T03:35:55.609Z,9.62
2019-04-22T03:37:06.726Z,9.59
2019-04-22T03:39:04.448Z,9.58
2019-04-22T03:39:52.931Z,9.66
2019-04-22T03:40:46.953Z,9.62
2019-04-22T03:42:00.595Z,9.59
2019-04-22T03:43:42.179Z,9.51
2019-04-22T03:44:54.616Z,9.54
2019-04-22T03:45:39.722Z,9.48
2019-04-22T03:46:55.351Z,9.55
2019-04-22T03:48:01.530Z,9.55
2019-04-22T03:48:45.383Z,9.50
2019-04-22T03:53:05.664Z,9.41
2019-04-22T03:53:49.332Z,9.50
2019-04-22T03:54:54.157Z,9.43
2019-04-22T03:55:49.074Z,9.39
2019-04-22T03:57:19.389Z,9.37
2019-04-22T03:58:54.063Z,9.43
2019-04-22T04:00:03.358Z,9.37
2019-04-22T04:01:55.714Z,9.40
2019-04-22T04:03:50.692Z,9.36
2019-04-22T04:04:43.608Z,9.37
2019-04-22T04:08:38.815Z,9.32
2019-04-22T04:10:49.838Z,9.28
2019-04-22T04:12:47.146Z,9.26
2019-04-22T04:14:53.703Z,9.26
2019-04-22T04:15:38.499Z,9.22
2019-04-22T04:16:49.891Z,9.23
2019-04-22T04:18:57.855Z,9.23
2019-04-22T04:19:56.331Z,9.18
2019-04-22T04:20:47.192Z,9.13
2019-04-22T04:21:41.889Z,9.16
2019-04-22T04:23:05.531Z,9.21
2019-04-22T04:25:56.489Z,9.26
2019-04-22T04:30:46.574Z,9.22
2019-04-22T04:32:55.182Z,9.23
2019-04-22T04:35:07.794Z,9.21
2019-04-22T04:35:50.181Z,9.14
2019-04-22T04:37:52.487Z,9.16
2019-04-22T04:38:45.686Z,9.18
2019-04-22T04:40:40.812Z,9.23
2019-04-22T04:42:05.428Z,9.18
2019-04-22T04:45:48.768Z,9.18
2019-04-22T04:46:51.567Z,9.18
2019-04-22T04:47:49.255Z,9.18
2019-04-22T04:50:55.301Z,9.19
2019-04-22T04:53:08.402Z,9.02
2019-04-22T04:53:46.539Z,9.08
2019-04-22T04:54:48.253Z,9.06
2019-04-22T04:56:40.251Z,9.04
2019-04-22T04:57:57.298Z,9.13
2019-04-22T05:00:11.290Z,9.02
2019-04-22T05:01:44.576Z,9.13
2019-04-22T05:03:48.962Z,9.08
2019-04-22T05:04:59.452Z,9.21
2019-04-22T05:05:43.654Z,9.13
2019-04-22T05:06:51.795Z,9.13
2019-04-22T05:09:01.495Z,9.22
2019-04-22T05:09:36.005Z,9.11
2019-04-22T05:10:58.365Z,9.19
2019-04-22T05:11:54.418Z,9.23
2019-04-22T05:12:52.840Z,9.22
2019-04-22T05:13:50.095Z,9.28
2019-04-22T05:14:41.455Z,9.28
2019-04-22T05:15:56.888Z,9.28
2019-04-22T05:16:57.692Z,9.25
2019-04-22T05:17:52.798Z,9.31
2019-04-22T05:18:44.669Z,9.40
2019-04-22T05:19:56.862Z,9.43
2019-04-22T05:21:40.771Z,9.40
2019-04-22T05:22:39.773Z,9.40
2019-04-22T05:24:47.859Z,9.46
2019-04-22T05:25:31.654Z,9.48
2019-04-22T05:26:39.705Z,9.55
2019-04-22T05:27:47.321Z,9.61
2019-04-22T05:28:39.703Z,9.55
2019-04-22T05:29:46.461Z,9.61
2019-04-22T05:30:57.312Z,9.69
2019-04-22T05:31:52.377Z,9.68
2019-04-22T05:32:44.624Z,9.73
2019-04-22T05:33:34.947Z,9.76
2019-04-22T05:34:36.577Z,9.86
2019-04-22T05:35:44.384Z,9.89
2019-04-22T05:36:42.657Z,9.94
2019-04-22T05:37:41.591Z,9.89
2019-04-22T05:38:39.965Z,9.98
2019-04-22T05:39:35.952Z,9.98
2019-04-22T05:40:50.075Z,10.09
2019-04-22T05:41:39.800Z,10.10
2019-04-22T05:42:30.988Z,10.13
2019-04-22T05:43:38.664Z,10.07
2019-04-22T05:45:31.172Z,10.28
2019-04-22T05:46:34.760Z,10.22
2019-04-22T05:47:46.165Z,10.35
2019-04-22T05:48:41.021Z,10.44
2019-04-22T05:49:34.754Z,10.37
2019-04-22T05:50:37.313Z,10.51
2019-04-22T05:51:37.081Z,10.51
2019-04-22T05:52:31.680Z,10.48
2019-04-22T05:53:32.532Z,10.51
2019-04-22T05:54:55.228Z,10.61
2019-04-22T05:55:43.292Z,10.67
2019-04-22T05:57:48.543Z,10.76
2019-04-22T05:58:38.142Z,10.86
2019-04-22T05:59:44.351Z,10.99
2019-04-22T06:01:05.704Z,11.04
2019-04-22T06:01:43.174Z,11.07
2019-04-22T06:02:47.363Z,11.26
2019-04-22T06:03:39.424Z,11.12
2019-04-22T06:04:37.224Z,11.23
2019-04-22T06:05:35.936Z,11.41
2019-04-22T06:06:36.209Z,11.43
2019-04-22T06:07:31.325Z,11.45
2019-04-22T06:08:44.377Z,11.54
2019-04-22T06:09:32.635Z,11.66
2019-04-22T06:10:41.825Z,11.60
2019-04-22T06:11:46.462Z,11.69
2019-04-22T06:12:32.788Z,11.70
2019-04-22T06:13:36.948Z,11.83
2019-04-22T06:14:31.421Z,11.88
2019-04-22T06:15:36.350Z,11.94
2019-04-22T06:16:43.126Z,11.94
2019-04-22T06:17:38.003Z,12.12
2019-04-22T06:18:33.476Z,12.15
2019-04-22T06:19:38.287Z,12.18
2019-04-22T06:20:38.394Z,12.29
2019-04-22T06:21:38.616Z,12.36
2019-04-22T06:22:44.280Z,12.42
2019-04-22T06:23:42.653Z,12.53
2019-04-22T06:24:39.228Z,12.55
2019-04-22T06:25:53.450Z,12.67
2019-04-22T06:26:46.511Z,12.67
2019-04-22T06:28:43.150Z,12.82
2019-04-22T06:29:32.093Z,12.94
2019-04-22T06:30:35.695Z,12.98
2019-04-22T06:31:43.281Z,13.08
2019-04-22T06:32:34.558Z,13.15
2019-04-22T06:33:34.889Z,13.09
2019-04-22T06:34:38.549Z,13.11
2019-04-22T06:35:45.766Z,13.22
2019-04-22T06:36:37.761Z,13.31
2019-04-22T06:37:43.277Z,13.27
2019-04-22T06:38:55.307Z,13.28
2019-04-22T06:39:38.249Z,13.46
2019-04-22T06:40:40.335Z,13.47
2019-04-22T06:41:38.067Z,13.54
2019-04-22T06:42:36.240Z,13.60
2019-04-22T06:43:35.023Z,13.74
2019-04-22T06:44:36.511Z,13.71
2019-04-22T06:45:35.052Z,13.75
2019-04-22T06:48:37.993Z,13.95
2019-04-22T06:49:35.598Z,13.97
2019-04-22T06:50:44.837Z,14.10
2019-04-22T06:51:37.737Z,14.10
2019-04-22T06:52:39.286Z,14.17
2019-04-22T06:53:34.410Z,14.14
2019-04-22T06:56:35.069Z,14.40
2019-04-22T06:57:36.340Z,14.37
2019-04-22T06:58:36.822Z,14.41
2019-04-22T06:59:37.777Z,14.51
2019-04-22T07:00:36.730Z,14.66
2019-04-22T07:01:35.701Z,14.65
2019-04-22T07:02:45.238Z,14.73
2019-04-22T07:03:44.165Z,14.79
2019-04-22T07:04:33.637Z,14.85
2019-04-22T07:05:27.582Z,14.92
2019-04-22T07:06:44.779Z,14.92
2019-04-22T07:07:31.478Z,15.00
2019-04-22T07:11:33.356Z,15.22
2019-04-22T07:12:34.792Z,15.19
2019-04-22T07:13:34.391Z,15.29
2019-04-22T07:14:35.615Z,15.28
2019-04-22T07:15:46.541Z,15.42
2019-04-22T07:16:38.081Z,15.44
2019-04-22T07:18:00.991Z,15.49
2019-04-22T07:18:36.081Z,15.58
2019-04-22T07:20:36.446Z,15.65
2019-04-22T07:21:37.319Z,15.65
2019-04-22T07:22:37.973Z,15.77
2019-04-22T07:25:34.919Z,15.91
2019-04-22T07:26:54.360Z,15.90
2019-04-22T07:27:34.471Z,15.94
2019-04-22T07:28:29.136Z,16.02
2019-04-22T07:29:32.610Z,16.04
2019-04-22T07:30:31.339Z,16.23
2019-04-22T07:31:37.290Z,16.26
2019-04-22T07:33:01.072Z,16.38
2019-04-22T07:35:45.954Z,16.46
2019-04-22T07:37:36.817Z,16.53
2019-04-22T07:38:29.857Z,16.64
2019-04-22T07:39:35.210Z,16.66
2019-04-22T07:40:38.917Z,16.75
2019-04-22T07:41:38.410Z,16.71
2019-04-22T07:42:36.882Z,16.68
2019-04-22T07:43:51.701Z,16.74
2019-04-22T07:44:48.480Z,16.86
2019-04-22T07:45:38.806Z,16.91
2019-04-22T07:47:53.829Z,17.02
2019-04-22T07:48:43.406Z,17.16
2019-04-22T07:49:41.180Z,17.11
2019-04-22T07:50:50.671Z,17.20
2019-04-22T07:52:33.424Z,17.29
2019-04-22T07:53:33.492Z,17.27
2019-04-22T07:54:31.639Z,17.38
2019-04-22T07:55:32.700Z,17.42
2019-04-22T07:56:37.911Z,17.49
2019-04-22T07:57:33.479Z,17.45
2019-04-22T07:58:35.538Z,17.54
2019-04-22T07:59:35.276Z,17.65
2019-04-22T08:00:34.306Z,17.64
2019-04-22T08:01:30.497Z,17.63
2019-04-22T08:02:37.684Z,17.70
2019-04-22T08:03:47.852Z,17.79
2019-04-22T08:04:55.775Z,17.79
2019-04-22T08:05:49.423Z,17.94
2019-04-22T08:06:43.794Z,17.82
2019-04-22T08:07:35.986Z,17.86
2019-04-22T08:10:49.615Z,18.00
2019-04-22T08:12:38.890Z,18.05
2019-04-22T08:13:38.839Z,18.04
2019-04-22T08:14:36.224Z,18.10
2019-04-22T08:15:43.213Z,18.15
2019-04-22T08:16:40.291Z,18.16
2019-04-22T08:18:34.096Z,18.18
2019-04-22T08:19:38.254Z,18.33
2019-04-22T08:20:39.188Z,18.28
2019-04-22T08:21:44.326Z,18.26
2019-04-22T08:22:40.185Z,18.35
2019-04-22T08:23:36.755Z,18.44
2019-04-22T08:24:42.254Z,18.50
2019-04-22T08:25:34.326Z,18.45
2019-04-22T08:26:32.015Z,18.56
2019-04-22T08:27:39.555Z,18.68
2019-04-22T08:28:41.306Z,18.56
2019-04-22T08:31:38.570Z,18.73
2019-04-22T08:32:34.582Z,18.81
2019-04-22T08:33:35.032Z,18.83
2019-04-22T08:34:47.466Z,18.93
2019-04-22T08:36:50.770Z,18.95
2019-04-22T08:37:47.569Z,19.07
2019-04-22T08:38:39.624Z,19.21
2019-04-22T08:39:33.347Z,19.21
2019-04-22T08:40:40.464Z,19.22
2019-04-22T08:41:37.574Z,19.30
2019-04-22T08:42:43.596Z,19.37
2019-04-22T08:44:52.107Z,19.34
2019-04-22T08:45:43.039Z,19.39
2019-04-22T08:46:48.959Z,19.49
2019-04-22T08:47:36.126Z,19.56
2019-04-22T08:48:41.388Z,19.64
2019-04-22T08:49:44.381Z,19.66
2019-04-22T08:50:33.926Z,19.71
2019-04-22T08:51:30.877Z,19.79
2019-04-22T08:52:33.809Z,19.88
2019-04-22T08:53:41.524Z,19.89
2019-04-22T08:54:37.657Z,20.03
2019-04-22T08:55:40.153Z,20.10
2019-04-22T08:56:45.609Z,20.14
2019-04-22T08:57:58.510Z,20.13
2019-04-22T08:58:35.877Z,20.21
2019-04-22T08:59:28.352Z,20.31
2019-04-22T09:00:42.093Z,20.29
2019-04-22T09:01:35.971Z,20.41
2019-04-22T09:02:45.508Z,20.47
2019-04-22T09:03:31.823Z,20.51
2019-04-22T09:04:30.927Z,20.65
2019-04-22T09:05:51.800Z,20.75
2019-04-22T09:06:49.686Z,20.65
2019-04-22T09:07:52.724Z,20.67
2019-04-22T09:08:38.627Z,20.75
2019-04-22T09:09:37.873Z,20.74
2019-04-22T09:10:37.766Z,20.77
2019-04-22T09:12:49.969Z,20.99
2019-04-22T09:13:35.522Z,21.02
2019-04-22T09:14:37.936Z,21.15
2019-04-22T09:15:34.280Z,21.20
2019-04-22T09:16:39.404Z,21.22
2019-04-22T09:17:34.382Z,21.33
2019-04-22T09:18:34.819Z,21.32
2019-04-22T09:19:47.794Z,21.54
2019-04-22T09:20:32.662Z,21.51
2019-04-22T09:22:36.526Z,21.57
2019-04-22T09:23:40.376Z,21.70
2019-04-22T09:24:35.771Z,21.75
2019-04-22T09:25:34.283Z,21.83
2019-04-22T09:26:35.990Z,21.89
2019-04-22T09:27:41.251Z,21.89
2019-04-22T09:28:38.053Z,21.98
2019-04-22T09:31:35.967Z,22.11
2019-04-22T09:32:39.999Z,22.23
2019-04-22T09:33:34.931Z,22.18
2019-04-22T09:34:38.275Z,22.29
2019-04-22T09:35:37.476Z,22.33
2019-04-22T09:36:33.708Z,22.25
2019-04-22T09:37:39.244Z,22.33
2019-04-22T09:38:39.560Z,22.41
2019-04-22T09:39:37.521Z,22.36
2019-04-22T09:40:34.525Z,22.41
2019-04-22T09:42:38.881Z,22.53
2019-04-22T09:43:42.795Z,22.65
2019-04-22T09:44:36.255Z,22.62
2019-04-22T09:45:36.924Z,22.60
2019-04-22T09:46:39.271Z,22.83
2019-04-22T09:47:38.498Z,22.80
2019-04-22T09:48:37.578Z,22.81
2019-04-22T09:49:37.073Z,22.76
2019-04-22T09:50:40.444Z,22.81
2019-04-22T09:51:30.833Z,22.81
2019-04-22T09:52:37.593Z,22.87
2019-04-22T09:53:37.596Z,22.84
2019-04-22T09:54:43.737Z,22.96
2019-04-22T09:55:31.231Z,22.90
2019-04-22T09:56:42.147Z,23.00
2019-04-22T09:57:35.347Z,22.99
2019-04-22T09:58:40.349Z,22.96
2019-04-22T09:59:36.734Z,23.02
2019-04-22T10:00:37.470Z,23.02
2019-04-22T10:02:02.344Z,23.12
2019-04-22T10:03:36.787Z,23.06
2019-04-22T10:04:34.666Z,23.10
2019-04-22T10:05:32.721Z,23.15
2019-04-22T10:06:40.599Z,23.15
2019-04-22T10:07:39.428Z,23.24
2019-04-22T10:08:40.687Z,23.24
2019-04-22T10:10:34.835Z,23.23
2019-04-22T10:12:36.716Z,23.25
2019-04-22T10:13:34.705Z,23.34
2019-04-22T10:14:32.090Z,23.34
2019-04-22T10:15:37.563Z,23.36
2019-04-22T10:16:40.293Z,23.28
2019-04-22T10:17:32.258Z,23.40
2019-04-22T10:18:32.457Z,23.48
2019-04-22T10:19:35.835Z,23.51
2019-04-22T10:20:31.067Z,23.41
2019-04-22T10:21:40.576Z,23.41
2019-04-22T10:22:44.009Z,23.41
2019-04-22T10:23:31.509Z,23.43
2019-04-22T10:24:31.983Z,23.48
2019-04-22T10:25:41.967Z,23.47
2019-04-22T10:26:33.373Z,23.44
2019-04-22T10:27:32.426Z,23.51
2019-04-22T10:28:38.521Z,23.56
2019-04-22T10:29:35.146Z,23.54
2019-04-22T10:30:44.446Z,23.58
2019-04-22T10:31:37.003Z,23.68
2019-04-22T10:32:33.427Z,23.63
2019-04-22T10:33:25.772Z,23.65
2019-04-22T10:34:17.872Z,23.73
2019-04-22T10:35:12.947Z,23.76
2019-04-22T10:36:08.013Z,23.81
2019-04-22T10:37:11.840Z,23.80
2019-04-22T10:38:08.301Z,23.83
2019-04-22T10:39:08.442Z,23.77
2019-04-22T10:40:09.870Z,23.77
2019-04-22T10:41:08.271Z,23.78
2019-04-22T10:42:07.185Z,23.81
2019-04-22T10:43:07.284Z,23.80
2019-04-22T10:44:06.893Z,23.83
2019-04-22T10:45:08.189Z,23.86
2019-04-22T10:46:08.217Z,23.77
2019-04-22T10:47:06.855Z,23.77
2019-04-22T10:48:08.202Z,23.93
2019-04-22T10:49:08.278Z,23.95
2019-04-22T10:50:07.011Z,23.92
2019-04-22T10:51:06.823Z,24.02
2019-04-22T10:52:06.823Z,24.05
2019-04-22T10:53:07.737Z,24.03
2019-04-22T10:54:07.374Z,24.13
2019-04-22T10:55:07.537Z,24.06
2019-04-22T10:56:07.236Z,24.13
2019-04-22T10:57:06.798Z,24.20
2019-04-22T10:58:06.799Z,24.21
2019-04-22T10:59:06.905Z,24.16
2019-04-22T11:00:06.726Z,24.16
2019-04-22T11:01:07.417Z,24.17
2019-04-22T11:02:07.522Z,24.23
2019-04-22T11:03:06.677Z,24.21
2019-04-22T11:04:07.023Z,24.21
2019-04-22T11:05:08.122Z,24.29
2019-04-22T11:06:07.494Z,24.20
2019-04-22T11:07:10.147Z,24.32
2019-04-22T11:08:08.184Z,24.32
2019-04-22T11:09:08.525Z,24.38
2019-04-22T11:10:21.760Z,24.36
2019-04-22T11:11:21.355Z,24.36
2019-04-22T11:12:13.887Z,24.45
2019-04-22T11:13:07.584Z,24.51
2019-04-22T11:14:07.460Z,24.45
2019-04-22T11:15:07.698Z,24.48
2019-04-22T11:16:07.628Z,24.47
2019-04-22T11:17:07.406Z,24.42
2019-04-22T11:18:07.418Z,24.42
2019-04-22T11:19:07.729Z,24.48
2019-04-22T11:20:07.820Z,24.45
2019-04-22T11:21:07.520Z,24.48
2019-04-22T11:22:16.218Z,24.51
2019-04-22T11:23:08.748Z,24.57
2019-04-22T11:24:06.461Z,24.55
2019-04-22T11:25:07.558Z,24.57
2019-04-22T11:26:07.960Z,24.55
2019-04-22T11:27:07.032Z,24.55
2019-04-22T11:28:07.556Z,24.60
2019-04-22T11:29:07.680Z,24.73
2019-04-22T11:30:07.836Z,24.68
2019-04-22T11:31:06.428Z,24.68
2019-04-22T11:32:06.384Z,24.73
2019-04-22T11:33:06.845Z,24.76
2019-04-22T11:34:06.400Z,24.73
2019-04-22T11:35:07.743Z,24.74
2019-04-22T11:36:06.339Z,24.70
2019-04-22T11:37:06.315Z,24.74
2019-04-22T11:38:06.618Z,24.68
2019-04-22T11:39:09.721Z,24.73
2019-04-22T11:40:18.969Z,24.69
2019-04-22T11:41:07.401Z,24.70
2019-04-22T11:42:06.267Z,24.76
2019-04-22T11:43:06.288Z,24.76
2019-04-22T11:44:07.583Z,24.85
2019-04-22T11:45:06.241Z,24.78
2019-04-22T11:46:07.306Z,24.85
2019-04-22T11:47:07.480Z,24.86
2019-04-22T11:48:06.188Z,24.91
2019-04-22T11:49:06.174Z,24.92
2019-04-22T11:50:06.195Z,24.93
2019-04-22T11:51:06.280Z,24.91
2019-04-22T11:52:08.694Z,24.93
2019-04-22T11:53:07.056Z,24.91
2019-04-22T11:54:07.189Z,24.88
2019-04-22T11:55:06.668Z,24.92
2019-04-22T11:56:06.885Z,24.91
2019-04-22T11:57:07.327Z,24.89
2019-04-22T11:58:06.740Z,24.89
2019-04-22T11:59:06.748Z,24.88
2019-04-22T12:00:07.141Z,24.99
2019-04-22T12:01:06.612Z,25.03
2019-04-22T12:02:06.730Z,25.01
2019-04-22T12:03:07.312Z,25.04
2019-04-22T12:04:07.450Z,24.99
2019-04-22T12:05:07.961Z,25.14
2019-04-22T12:06:06.081Z,25.04
2019-04-22T12:07:05.997Z,25.10
2019-04-22T12:08:07.077Z,25.17
2019-04-22T12:09:05.999Z,25.13
2019-04-22T12:10:22.377Z,25.21
2019-04-22T12:11:08.000Z,25.22
2019-04-22T12:12:05.930Z,25.31
2019-04-22T12:13:06.373Z,25.21
2019-04-22T12:14:06.274Z,25.22
2019-04-22T12:15:06.397Z,25.23
2019-04-22T12:16:07.360Z,25.28
2019-04-22T12:17:05.875Z,25.23
2019-04-22T12:18:07.067Z,25.33
2019-04-22T12:19:07.049Z,25.36
2019-04-22T12:20:08.785Z,25.31
2019-04-22T12:21:05.850Z,25.46
2019-04-22T12:22:07.138Z,25.44
2019-04-22T12:23:07.320Z,25.51
2019-04-22T12:24:05.826Z,25.55
2019-04-22T12:25:06.374Z,25.55
2019-04-22T12:26:11.678Z,25.66
2019-04-22T12:27:06.776Z,25.62
2019-04-22T12:28:05.753Z,25.88
2019-04-22T12:29:06.983Z,26.03
2019-04-22T12:30:06.898Z,26.37
2019-04-22T12:31:05.810Z,26.70
2019-04-22T12:32:07.399Z,27.17
2019-04-22T12:33:09.284Z,27.64
2019-04-22T12:34:07.905Z,28.07
2019-04-22T12:35:07.193Z,28.49
2019-04-22T12:36:06.478Z,28.91
2019-04-22T12:37:06.729Z,29.23
2019-04-22T12:38:08.614Z,29.54
2019-04-22T12:39:13.778Z,29.84
2019-04-22T12:40:06.508Z,30.13
2019-04-22T12:41:09.575Z,30.28
2019-04-22T12:42:06.634Z,30.61
2019-04-22T12:43:06.668Z,30.85
2019-04-22T12:44:05.638Z,31.05
2019-04-22T12:45:06.435Z,31.25
2019-04-22T12:46:07.870Z,31.47
2019-04-22T12:47:07.430Z,31.55
2019-04-22T12:48:06.373Z,31.76
2019-04-22T12:49:05.533Z,31.96
2019-04-22T12:50:12.307Z,32.11
2019-04-22T12:51:07.039Z,32.09
2019-04-22T12:52:05.500Z,32.18
2019-04-22T12:53:10.910Z,32.30
2019-04-22T12:54:06.845Z,32.48
2019-04-22T12:55:05.993Z,32.65
2019-04-22T12:56:06.919Z,32.80
2019-04-22T12:57:05.963Z,32.97
2019-04-22T12:58:05.570Z,32.97
2019-04-22T12:59:05.757Z,32.97
2019-04-22T13:00:05.840Z,33.02
2019-04-22T13:01:06.633Z,32.97
2019-04-22T13:02:06.890Z,32.97
2019-04-22T13:03:05.465Z,33.01
2019-04-22T13:04:09.119Z,33.09
2019-04-22T13:05:05.961Z,33.19
2019-04-22T13:06:05.889Z,33.23
2019-04-22T13:07:06.104Z,33.27
2019-04-22T13:08:05.684Z,33.22
2019-04-22T13:09:06.246Z,33.27
2019-04-22T13:10:06.048Z,33.31
2019-04-22T13:11:11.781Z,33.30
2019-04-22T13:12:06.926Z,33.22
2019-04-22T13:13:06.803Z,33.17
2019-04-22T13:14:05.357Z,33.09
2019-04-22T13:15:06.511Z,33.19
2019-04-22T13:16:06.882Z,32.97
2019-04-22T13:17:06.210Z,32.97
2019-04-22T13:18:13.754Z,32.87
2019-04-22T13:19:11.246Z,32.85
2019-04-22T13:20:06.237Z,32.87
2019-04-22T13:21:06.570Z,32.77
2019-04-22T13:22:05.220Z,32.80
2019-04-22T13:23:05.218Z,32.80
2019-04-22T13:24:05.178Z,32.74
2019-04-22T13:25:06.048Z,32.68
2019-04-22T13:26:05.239Z,32.58
2019-04-22T13:27:06.571Z,32.30
2019-04-22T13:28:05.235Z,32.18
2019-04-22T13:29:05.324Z,31.94
2019-04-22T13:30:06.245Z,31.66
2019-04-22T13:31:05.768Z,31.47
2019-04-22T13:32:05.116Z,31.37
2019-04-22T13:33:05.222Z,31.25
2019-04-22T13:34:09.577Z,31.12
2019-04-22T13:35:07.105Z,30.88
2019-04-22T13:36:05.979Z,30.73
2019-04-22T13:37:07.390Z,30.55
2019-04-22T13:38:05.043Z,30.40
2019-04-22T13:39:05.060Z,30.21
2019-04-22T13:40:05.392Z,29.98
2019-04-22T13:41:16.410Z,29.87
2019-04-22T13:42:11.410Z,29.71
2019-04-22T13:43:07.097Z,29.73
2019-04-22T13:44:05.051Z,29.57
2019-04-22T13:45:04.961Z,29.49
2019-04-22T13:46:06.031Z,29.35
2019-04-22T13:47:19.751Z,29.29
2019-04-22T13:48:27.609Z,29.17
2019-04-22T13:49:51.546Z,29.08
2019-04-22T13:50:47.660Z,28.93
2019-04-22T13:51:36.395Z,28.82
2019-04-22T13:55:35.707Z,28.70
2019-04-22T13:56:25.311Z,28.66
2019-04-22T13:57:28.054Z,28.56
2019-04-22T13:58:18.441Z,28.51
2019-04-22T13:59:16.735Z,28.37
2019-04-22T14:00:07.663Z,28.30
2019-04-22T14:01:04.973Z,28.27
2019-04-22T14:02:06.332Z,28.29
2019-04-22T14:03:04.766Z,28.33
2019-04-22T14:04:04.933Z,28.32
2019-04-22T14:05:04.774Z,28.22
2019-04-22T14:06:04.940Z,28.12
2019-04-22T14:07:05.143Z,28.05
2019-04-22T14:08:06.310Z,28.00
2019-04-22T14:09:05.274Z,27.92
2019-04-22T14:10:04.698Z,27.80
2019-04-22T14:11:16.993Z,27.78
2019-04-22T14:12:07.732Z,27.77
2019-04-22T14:13:05.717Z,27.60
2019-04-22T14:14:05.097Z,27.48
2019-04-22T14:15:06.191Z,27.45
2019-04-22T14:16:04.834Z,27.45
2019-04-22T14:17:04.962Z,27.29
2019-04-22T14:18:05.181Z,27.44
2019-04-22T14:19:05.682Z,27.22
2019-04-22T14:20:04.810Z,27.22
2019-04-22T14:21:05.081Z,27.27
2019-04-22T14:22:04.566Z,27.15
2019-04-22T14:23:06.084Z,27.14
2019-04-22T14:24:04.929Z,27.05
2019-04-22T14:25:05.043Z,26.99
2019-04-22T14:26:05.222Z,27.00
2019-04-22T14:27:19.542Z,26.93
2019-04-22T14:28:10.228Z,26.89
2019-04-22T14:29:06.049Z,26.92
2019-04-22T14:30:04.479Z,26.85
2019-04-22T14:31:04.516Z,26.83
2019-04-22T14:33:06.795Z,26.78
2019-04-22T14:34:07.332Z,26.73
2019-04-22T14:35:05.005Z,26.58
2019-04-22T14:36:04.962Z,26.66
2019-04-22T14:37:05.720Z,26.66
2019-04-22T14:38:06.294Z,26.55
2019-04-22T14:39:05.902Z,26.59
2019-04-22T14:40:08.770Z,26.58
2019-04-22T14:41:05.759Z,26.62
2019-04-22T14:42:21.683Z,26.70
2019-04-22T14:43:24.724Z,26.63
2019-04-22T14:44:12.632Z,26.78